Time;durP1;ratioP1;P1;durP2;ratioP2;P2;SDS_P1;SDS_P2;PMS_P1;PMS_P2;Temp;Humidity;BMP_temperature;BMP_pressure;BME280_temperature;BME280_humidity;BME280_pressure;Samples;Min_cycle;Max_cycle;Signal;HPM_P1;HPM_P2
2022/07/12 00:02:10;;;;;;;0.90;0.85;;;;;;;15.65;77.18;102328.63;5120476;27;20839;-69
2022/07/12 00:04:37;;;;;;;2.08;1.35;;;;;;;15.63;77.32;102327.78;5110206;27;20095;-70
2022/07/12 00:07:04;;;;;;;2.17;1.40;;;;;;;15.60;77.23;102335.88;5112228;27;20037;-71
2022/07/12 00:09:31;;;;;;;1.63;1.40;;;;;;;15.56;77.04;102335.09;5107092;27;20522;-72
2022/07/12 00:11:59;;;;;;;1.65;1.20;;;;;;;15.51;77.48;102335.22;5111043;27;20044;-71
2022/07/12 00:14:26;;;;;;;1.85;1.00;;;;;;;15.47;77.26;102333.56;5112617;27;20044;-73
2022/07/12 00:16:53;;;;;;;1.20;1.10;;;;;;;15.43;77.14;102326.56;5112122;27;20514;-72
2022/07/12 00:19:20;;;;;;;2.15;1.10;;;;;;;15.39;77.11;102322.25;5112420;27;20037;-72
2022/07/12 00:21:47;;;;;;;1.30;1.20;;;;;;;15.33;77.19;102317.97;5110758;27;20802;-71
2022/07/12 00:24:17;;;;;;;1.40;1.30;;;;;;;15.30;77.38;102318.06;5117164;27;20113;-71
2022/07/12 00:26:44;;;;;;;2.88;1.40;;;;;;;15.28;77.79;102305.72;5110350;28;20098;-71
2022/07/12 00:29:11;;;;;;;2.47;1.40;;;;;;;15.23;77.68;102313.81;5113768;27;20040;-71
2022/07/12 00:31:38;;;;;;;2.20;1.30;;;;;;;15.22;77.68;102314.72;5120488;27;20039;-71
2022/07/12 00:34:05;;;;;;;1.50;1.38;;;;;;;15.20;77.70;102311.25;5114941;27;20044;-71
2022/07/12 00:36:32;;;;;;;1.77;1.33;;;;;;;15.19;77.97;102309.50;5112867;27;20777;-73
2022/07/12 00:38:59;;;;;;;1.40;1.30;;;;;;;15.15;77.74;102308.72;5124908;27;20044;-72
2022/07/12 00:41:26;;;;;;;1.52;1.20;;;;;;;15.10;77.74;102302.66;5111433;27;20123;-72
2022/07/12 00:43:53;;;;;;;1.30;1.20;;;;;;;15.08;77.69;102299.16;5113732;27;20040;-73
2022/07/12 00:46:23;;;;;;;2.65;1.50;;;;;;;15.06;77.72;102306.28;5136862;27;20051;-72
2022/07/12 00:48:51;;;;;;;2.30;1.77;;;;;;;15.03;77.61;102301.06;5139648;27;20032;-72
2022/07/12 00:51:19;;;;;;;2.05;1.50;;;;;;;15.01;77.63;102300.22;5143923;27;20046;-72
2022/07/12 00:53:46;;;;;;;1.60;1.50;;;;;;;15.00;77.85;102299.34;5126796;27;20062;-72
2022/07/12 00:56:17;;;;;;;3.40;1.63;;;;;;;14.98;78.11;102300.31;5110554;27;20048;-72
2022/07/12 00:58:45;;;;;;;1.88;1.70;;;;;;;14.96;78.20;102295.03;5112764;27;20074;-71
2022/07/12 01:01:13;;;;;;;1.60;1.50;;;;;;;14.95;78.49;102292.41;5112783;27;20047;-71
2022/07/12 01:03:42;;;;;;;2.22;1.75;;;;;;;14.92;79.19;102298.69;5107847;27;20047;-71
2022/07/12 01:06:09;;;;;;;3.28;1.95;;;;;;;14.88;79.39;102300.56;5107702;28;20056;-71
2022/07/12 01:08:37;;;;;;;2.25;1.80;;;;;;;14.86;79.62;102298.81;5105418;27;20040;-71
2022/07/12 01:11:04;;;;;;;2.05;1.70;;;;;;;14.84;79.86;102305.97;5111037;27;20042;-71
2022/07/12 01:13:34;;;;;;;2.17;1.80;;;;;;;14.80;79.93;102310.50;5112057;27;20109;-71
2022/07/12 01:16:02;;;;;;;1.98;1.65;;;;;;;14.77;79.80;102309.66;5109960;27;20059;-71
2022/07/12 01:18:30;;;;;;;1.52;1.42;;;;;;;14.73;79.39;102311.53;5109983;28;20515;-71
2022/07/12 01:21:00;;;;;;;2.95;1.70;;;;;;;14.71;79.08;102305.38;5111174;27;20040;-71
2022/07/12 01:23:27;;;;;;;2.90;1.60;;;;;;;14.68;79.29;102305.47;5110910;28;20115;-70
2022/07/12 01:25:55;;;;;;;1.88;1.60;;;;;;;14.63;79.09;102307.31;5107774;27;20044;-70
2022/07/12 01:28:29;;;;;;;2.10;1.60;;;;;;;14.57;79.05;102311.00;5108987;27;20036;-71
2022/07/12 01:30:56;;;;;;;1.65;1.42;;;;;;;14.54;79.34;102309.28;5110857;28;20051;-71
2022/07/12 01:33:26;;;;;;;4.05;1.60;;;;;;;14.50;79.57;102312.91;5110776;28;20138;-71
2022/07/12 01:35:57;;;;;;;2.38;1.73;;;;;;;14.48;79.55;102327.13;5107660;28;20040;-70
2022/07/12 01:38:24;;;;;;;2.95;2.00;;;;;;;14.44;79.83;102327.22;5109720;28;20040;-70
2022/07/12 01:40:51;;;;;;;3.38;1.98;;;;;;;14.41;79.91;102323.75;5111269;28;20062;-71
2022/07/12 01:43:18;;;;;;;2.53;1.73;;;;;;;14.40;79.74;102335.25;5113723;27;20119;-71
2022/07/12 01:45:46;;;;;;;4.38;2.15;;;;;;;14.36;79.93;102334.47;5111217;27;20087;-71
2022/07/12 01:48:13;;;;;;;2.47;2.28;;;;;;;14.33;80.18;102333.66;5109567;27;20048;-71
2022/07/12 01:50:40;;;;;;;3.83;2.00;;;;;;;14.31;79.83;102343.44;5110220;28;20046;-71
2022/07/12 01:53:07;;;;;;;3.83;1.88;;;;;;;14.28;79.87;102337.31;5110411;28;20562;-70
2022/07/12 01:55:34;;;;;;;3.92;2.00;;;;;;;14.27;79.72;102340.88;5110251;27;20845;-70
2022/07/12 01:58:01;;;;;;;2.15;1.75;;;;;;;14.25;79.88;102334.72;5110739;27;20050;-71
2022/07/12 02:00:30;;;;;;;2.35;1.50;;;;;;;14.23;79.96;102341.81;5110152;27;20060;-71
2022/07/12 02:02:58;;;;;;;2.42;1.60;;;;;;;14.21;80.15;102345.44;5111995;27;20040;-71
2022/07/12 02:05:26;;;;;;;2.35;1.63;;;;;;;14.19;80.25;102341.94;5105612;28;20040;-70
2022/07/12 02:07:54;;;;;;;1.70;1.60;;;;;;;14.17;80.52;102338.44;5110952;27;20147;-71
2022/07/12 02:10:21;;;;;;;2.08;1.60;;;;;;;14.16;80.54;102339.34;5108251;27;20041;-71
2022/07/12 02:12:48;;;;;;;2.53;1.60;;;;;;;14.12;80.29;102339.41;5109628;27;20450;-71
2022/07/12 02:15:16;;;;;;;3.95;1.90;;;;;;;14.09;80.45;102336.81;5107642;27;20061;-71
2022/07/12 02:17:43;;;;;;;3.80;2.30;;;;;;;14.08;80.82;102340.38;5109842;28;20044;-71
2022/07/12 02:20:12;;;;;;;3.20;2.30;;;;;;;14.06;80.57;102336.03;5111386;28;20044;-71
2022/07/12 02:22:39;;;;;;;2.58;2.03;;;;;;;14.04;80.41;102330.72;5110506;27;20074;-70
2022/07/12 02:25:07;;;;;;;3.25;2.00;;;;;;;14.01;80.53;102336.13;5102712;27;20036;-71
2022/07/12 02:27:34;;;;;;;2.80;1.88;;;;;;;13.98;80.43;102328.22;5107462;27;20037;-71
2022/07/12 02:30:01;;;;;;;2.53;1.95;;;;;;;13.97;80.67;102324.72;5112603;27;20047;-71
2022/07/12 02:32:28;;;;;;;2.10;1.75;;;;;;;13.93;80.77;102320.38;5110903;27;20047;-71
2022/07/12 02:34:55;;;;;;;3.38;1.83;;;;;;;13.90;80.91;102323.06;5111535;28;20062;-71
2022/07/12 02:37:24;;;;;;;2.58;1.70;;;;;;;13.88;80.85;102324.00;5111040;27;20066;-71
2022/07/12 02:40:52;;;;;;;1.80;1.70;;;;;;;13.84;80.70;102332.94;5112687;28;20551;-71
2022/07/12 02:42:39;;;;;;;1.73;1.63;;;;;;;13.80;80.91;102332.09;5111524;27;20094;-70
2022/07/12 02:45:07;;;;;;;1.90;1.70;;;;;;;13.78;81.15;102333.94;5112497;28;20033;-71
2022/07/12 02:47:38;;;;;;;2.95;1.90;;;;;;;13.75;81.18;102326.91;5110540;27;20040;-71
2022/07/12 02:50:07;;;;;;;2.05;1.52;;;;;;;13.73;81.05;102320.78;5112955;27;20074;-71
2022/07/12 02:52:35;;;;;;;2.15;1.50;;;;;;;13.71;81.06;102321.69;5112718;28;20110;-71
2022/07/12 02:55:03;;;;;;;2.35;1.60;;;;;;;13.68;81.46;102314.69;5113876;28;20056;-71
2022/07/12 02:57:30;;;;;;;2.63;1.90;;;;;;;13.64;81.40;102326.25;5108928;27;20507;-71
2022/07/12 02:59:57;;;;;;;3.03;2.00;;;;;;;13.61;81.78;102323.66;5112836;27;20078;-71
2022/07/12 03:02:24;;;;;;;2.40;1.70;;;;;;;13.58;81.84;102313.13;5111713;28;20568;-72
2022/07/12 03:04:51;;;;;;;2.20;2.00;;;;;;;13.58;81.88;102321.06;5114048;27;20138;-72
2022/07/12 03:07:18;;;;;;;2.28;2.08;;;;;;;13.57;81.78;102316.69;5108243;27;20074;-72
2022/07/12 03:09:45;;;;;;;2.40;1.73;;;;;;;13.57;81.46;102314.03;5110964;27;20486;-73
2022/07/12 03:12:13;;;;;;;2.38;1.88;;;;;;;13.56;81.38;102321.13;5113188;28;20490;-71
2022/07/12 03:14:40;;;;;;;2.45;2.05;;;;;;;13.55;81.36;102329.97;5113281;28;20048;-70
2022/07/12 03:17:07;;;;;;;2.40;2.20;;;;;;;13.54;81.58;102322.91;5110914;28;20102;-70
2022/07/12 03:19:35;;;;;;;2.95;1.77;;;;;;;13.53;81.86;102323.81;5113305;27;20040;-69
2022/07/12 03:22:02;;;;;;;2.17;1.98;;;;;;;13.54;81.82;102320.25;5110888;27;20040;-69
2022/07/12 03:24:29;;;;;;;3.60;2.63;;;;;;;13.53;81.74;102322.94;5113929;27;20583;-70
2022/07/12 03:26:57;;;;;;;2.20;1.95;;;;;;;13.51;81.84;102325.59;5112177;27;20048;-70
2022/07/12 03:29:24;;;;;;;3.88;2.00;;;;;;;13.48;81.62;102315.94;5114569;28;20945;-69
2022/07/12 03:31:51;;;;;;;2.58;1.80;;;;;;;13.45;81.41;102323.94;5112233;28;20063;-69
2022/07/12 03:34:18;;;;;;;2.95;1.75;;;;;;;13.45;81.27;102325.75;5111551;28;20048;-70
2022/07/12 03:36:45;;;;;;;2.38;1.65;;;;;;;13.44;81.07;102329.28;5110416;28;20089;-70
2022/07/12 03:39:13;;;;;;;3.05;1.80;;;;;;;13.43;81.16;102328.41;5113268;28;20134;-70
2022/07/12 03:41:41;;;;;;;3.25;2.30;;;;;;;13.44;81.28;102324.00;5112964;27;20574;-70
2022/07/12 03:44:08;;;;;;;6.03;2.15;;;;;;;13.44;81.09;102329.28;5108854;27;20064;-68
2022/07/12 03:46:35;;;;;;;2.42;2.22;;;;;;;13.45;81.15;102334.53;5111885;28;20935;-68
2022/07/12 03:49:03;;;;;;;2.80;2.30;;;;;;;13.47;81.15;102331.88;5110735;28;20043;-69
2022/07/12 03:51:31;;;;;;;3.40;2.28;;;;;;;13.48;81.00;102325.69;5114017;27;20036;-69
2022/07/12 03:53:59;;;;;;;2.38;2.13;;;;;;;13.51;80.93;102326.50;5112170;28;20040;-68
2022/07/12 03:59:12;;;;;;;2.55;2.05;;;;;;;13.57;80.84;102328.16;5109386;28;20074;-69
2022/07/12 04:01:39;;;;;;;3.20;2.17;;;;;;;13.57;80.79;102330.81;5113480;28;20097;-69
2022/07/12 04:04:07;;;;;;;2.92;2.00;;;;;;;13.59;80.60;102336.94;5112222;27;20044;-69
2022/07/12 04:06:35;;;;;;;2.85;2.10;;;;;;;13.64;80.60;102332.44;5112348;27;20782;-70
2022/07/12 04:09:04;;;;;;;3.10;2.00;;;;;;;13.72;80.32;102326.09;5105590;28;20094;-70
2022/07/12 04:11:31;;;;;;;4.22;2.35;;;;;;;13.79;80.15;102317.09;5112666;27;20473;-70
2022/07/12 04:13:59;;;;;;;3.75;2.15;;;;;;;13.79;79.95;102318.00;5112381;28;20113;-69
2022/07/12 04:16:27;;;;;;;2.88;2.03;;;;;;;13.80;80.05;102318.84;5110208;27;20073;-68
2022/07/12 04:18:56;;;;;;;3.25;2.72;;;;;;;13.84;79.86;102306.44;5109680;27;20558;-68
2022/07/12 04:21:24;;;;;;;4.10;3.70;;;;;;;13.88;80.08;102314.31;5113237;28;20530;-68
2022/07/12 04:23:51;;;;;;;5.97;4.97;;;;;;;13.94;80.22;102311.50;5110026;27;20265;-68
2022/07/12 04:26:18;;;;;;;4.40;4.00;;;;;;;14.04;80.19;102313.97;5110500;27;20067;-68
2022/07/12 04:28:46;;;;;;;5.95;5.35;;;;;;;14.13;80.39;102311.09;5110705;28;20564;-68
2022/07/12 04:31:13;;;;;;;6.07;4.90;;;;;;;14.21;80.40;102306.50;5108551;28;20040;-69
2022/07/12 04:33:40;;;;;;;5.95;5.03;;;;;;;14.27;80.62;102297.53;5105104;27;20143;-70
2022/07/12 04:36:10;;;;;;;6.80;6.10;;;;;;;14.34;80.62;102299.16;5111639;27;20123;-70
2022/07/12 04:38:37;;;;;;;6.40;5.80;;;;;;;14.39;80.83;102305.22;5110930;28;20063;-70
2022/07/12 04:41:04;;;;;;;9.15;7.10;;;;;;;14.48;81.10;102306.78;5113179;27;20040;-70
2022/07/12 04:43:32;;;;;;;8.18;7.30;;;;;;;14.59;81.93;102315.38;5110828;28;20036;-69
2022/07/12 04:46:10;;;;;;;8.07;7.22;;;;;;;14.73;81.62;102316.84;5109623;28;20040;-71
2022/07/12 04:48:38;;;;;;;7.20;6.53;;;;;;;14.84;81.72;102319.25;5111246;28;20091;-71
2022/07/12 04:51:05;;;;;;;11.05;7.35;;;;;;;14.98;81.25;102334.84;5112649;27;20131;-67
2022/07/12 04:53:32;;;;;;;29.60;7.80;;;;;;;15.12;81.20;102329.16;5107978;27;20044;-71
2022/07/12 04:55:59;;;;;;;10.48;6.70;;;;;;;15.61;80.20;102346.44;5110273;27;20102;-69
2022/07/12 04:58:26;;;;;;;9.05;6.55;;;;;;;15.74;79.91;102343.47;5108639;27;20036;-71
2022/07/12 05:00:54;;;;;;;26.48;8.32;;;;;;;15.72;79.85;102332.00;5110953;27;20465;-69
2022/07/12 05:03:26;;;;;;;19.58;8.30;;;;;;;15.76;80.09;102347.81;5108569;27;20036;-70
2022/07/12 05:05:54;;;;;;;9.95;7.70;;;;;;;15.82;80.05;102341.44;5106508;28;20133;-70
2022/07/12 05:08:22;;;;;;;16.08;7.78;;;;;;;15.90;80.00;102339.47;5108214;28;20044;-69
2022/07/12 05:10:49;;;;;;;10.20;7.90;;;;;;;16.01;79.85;102331.19;5111205;28;20133;-69
2022/07/12 05:13:16;;;;;;;14.90;6.95;;;;;;;16.09;79.85;102330.94;5110282;27;20093;-69
2022/07/12 05:15:43;;;;;;;8.80;6.93;;;;;;;16.17;79.41;102341.38;5110467;28;20072;-70
2022/07/12 05:18:10;;;;;;;9.70;6.95;;;;;;;16.30;79.62;102335.63;5108754;28;20037;-70
2022/07/12 05:20:37;;;;;;;14.88;7.63;;;;;;;16.48;79.35;102345.75;5110189;28;20125;-69
2022/07/12 05:23:05;;;;;;;11.93;8.57;;;;;;;16.80;78.73;102354.50;5101462;28;20068;-70
2022/07/12 05:25:33;;;;;;;8.82;7.93;;;;;;;17.18;77.95;102352.38;5104225;28;20089;-69
2022/07/12 05:28:00;;;;;;;9.43;7.25;;;;;;;17.37;77.66;102349.94;5109650;28;20044;-69
2022/07/12 05:30:28;;;;;;;15.80;8.55;;;;;;;17.57;77.35;102362.56;5109519;28;20051;-70
2022/07/12 05:32:55;;;;;;;8.77;7.03;;;;;;;19.29;74.26;102363.94;5106541;28;20048;-69
2022/07/12 05:35:23;;;;;;;14.13;6.68;;;;;;;22.21;66.67;102356.00;5110496;28;20068;-70
2022/07/12 05:37:50;;;;;;;13.50;5.72;;;;;;;24.65;60.10;102355.66;5107696;28;20068;-70
2022/07/12 05:40:18;;;;;;;4.90;4.18;;;;;;;26.22;54.69;102344.88;5111039;28;20225;-70
2022/07/12 05:42:46;;;;;;;15.10;5.78;;;;;;;27.60;50.43;102351.56;5110003;28;20501;-70
2022/07/12 05:45:13;;;;;;;5.97;4.70;;;;;;;28.94;46.83;102357.88;5109890;28;20040;-70
2022/07/12 05:47:42;;;;;;;7.20;3.90;;;;;;;30.12;43.92;102362.09;5092182;28;20028;-70
2022/07/12 05:50:09;;;;;;;6.30;3.45;;;;;;;31.24;40.86;102355.44;5105305;28;20068;-70
2022/07/12 05:55:22;;;;;;;4.90;3.72;;;;;;;32.82;37.55;102361.81;5108205;28;20072;-69
2022/07/12 05:57:49;;;;;;;12.50;3.95;;;;;;;33.49;36.30;102360.41;5110265;28;20089;-71
2022/07/12 06:00:17;;;;;;;6.97;3.55;;;;;;;34.16;34.63;102361.56;5112349;28;20028;-72
2022/07/12 06:02:44;;;;;;;5.25;2.92;;;;;;;34.71;33.63;102359.28;5112054;28;20075;-70
2022/07/12 06:05:11;;;;;;;14.80;4.07;;;;;;;34.98;32.53;102369.94;5113313;28;20038;-70
2022/07/12 06:07:38;;;;;;;12.50;3.97;;;;;;;35.33;32.34;102369.69;5115448;27;20101;-72
2022/07/12 06:10:06;;;;;;;11.27;3.72;;;;;;;35.28;31.90;102377.59;5115314;28;20071;-70
2022/07/12 06:12:33;;;;;;;25.17;5.00;;;;;;;35.08;31.97;102379.84;5114094;28;20453;-70
2022/07/12 06:15:00;;;;;;;6.55;3.13;;;;;;;35.23;31.46;102385.47;5115019;28;20048;-70
2022/07/12 06:17:29;;;;;;;4.45;3.10;;;;;;;34.01;32.89;102392.31;5115992;28;20032;-70
2022/07/12 06:19:56;;;;;;;19.10;4.45;;;;;;;33.37;33.48;102400.84;5115245;28;20541;-70
2022/07/12 06:22:23;;;;;;;7.40;3.30;;;;;;;31.57;36.08;102398.66;5116324;28;20504;-70
2022/07/12 06:24:50;;;;;;;11.38;3.88;;;;;;;29.39;39.42;102408.38;5128901;28;20919;-70
2022/07/12 06:27:18;;;;;;;36.13;5.60;;;;;;;27.61;42.94;102395.78;5133879;28;20087;-70
2022/07/12 06:29:47;;;;;;;21.60;4.53;;;;;;;26.33;46.21;102399.00;5129706;28;20394;-70
2022/07/12 06:32:16;;;;;;;18.27;4.13;;;;;;;25.34;48.29;102412.19;5120669;28;20043;-70
2022/07/12 06:34:44;;;;;;;13.60;4.30;;;;;;;24.66;50.34;102412.16;5114354;28;20163;-70
2022/07/12 06:37:12;;;;;;;18.65;5.07;;;;;;;24.13;52.06;102414.66;5115110;28;20115;-70
2022/07/12 06:39:40;;;;;;;10.07;4.38;;;;;;;23.62;53.58;102409.69;5115213;28;20036;-70
2022/07/12 06:42:07;;;;;;;10.60;4.75;;;;;;;23.23;54.57;102416.53;5115016;28;20085;-70
2022/07/12 06:44:36;;;;;;;5.53;4.07;;;;;;;22.94;55.74;102405.63;5096821;28;20127;-71
2022/07/12 06:47:04;;;;;;;7.32;4.13;;;;;;;22.77;56.17;102399.44;5114966;28;20051;-71
2022/07/12 06:49:31;;;;;;;15.75;4.75;;;;;;;22.68;57.49;102407.13;5114229;28;20071;-71
2022/07/12 06:51:58;;;;;;;14.05;5.03;;;;;;;22.49;58.13;102403.66;5114853;28;20430;-71
2022/07/12 06:54:26;;;;;;;9.05;5.20;;;;;;;22.39;58.60;102401.56;5114989;28;20036;-71
2022/07/12 06:56:53;;;;;;;9.57;4.72;;;;;;;22.28;58.86;102392.28;5114231;28;20052;-71
2022/07/12 06:59:20;;;;;;;5.43;4.30;;;;;;;22.17;59.05;102390.22;5115027;28;20067;-71
2022/07/12 07:01:47;;;;;;;11.65;5.15;;;;;;;22.02;59.23;102389.25;5115580;28;20047;-71
2022/07/12 07:04:14;;;;;;;11.82;5.25;;;;;;;21.99;59.79;102396.56;5114365;28;20544;-71
2022/07/12 07:06:41;;;;;;;16.80;5.53;;;;;;;21.99;59.96;102400.13;5113387;28;20036;-71
2022/07/12 07:09:10;;;;;;;14.02;4.93;;;;;;;21.99;60.02;102402.81;5113793;28;20070;-70
2022/07/12 07:11:37;;;;;;;21.95;5.85;;;;;;;21.95;60.60;102397.69;5114305;28;20044;-70
2022/07/12 07:14:05;;;;;;;18.85;5.78;;;;;;;21.96;60.86;102407.50;5115141;28;20036;-71
2022/07/12 07:16:32;;;;;;;11.95;5.68;;;;;;;22.01;60.94;102408.09;5113570;27;20844;-70
2022/07/12 07:19:00;;;;;;;17.77;6.28;;;;;;;22.04;61.65;102399.88;5111779;28;20063;-71
2022/07/12 07:21:27;;;;;;;8.50;5.13;;;;;;;22.15;61.92;102405.53;5114342;28;20129;-71
2022/07/12 07:23:55;;;;;;;6.68;5.00;;;;;;;22.23;62.01;102406.91;5114398;28;20040;-70
2022/07/12 07:26:22;;;;;;;14.15;4.72;;;;;;;22.31;61.67;102394.81;5114372;28;20519;-71
2022/07/12 07:31:37;;;;;;;9.93;4.63;;;;;;;22.47;61.41;102402.91;5114355;28;20072;-70
2022/07/12 07:34:04;;;;;;;21.55;4.80;;;;;;;22.62;61.15;102402.97;5092412;28;20033;-70
2022/07/12 07:36:32;;;;;;;21.33;5.35;;;;;;;22.78;60.97;102408.34;5114025;28;20502;-70
2022/07/12 07:38:59;;;;;;;6.07;3.95;;;;;;;22.96;60.78;102404.59;5113855;28;20074;-72
2022/07/12 07:41:26;;;;;;;12.63;4.78;;;;;;;23.14;60.12;102404.47;5114299;28;20132;-70
2022/07/12 07:43:53;;;;;;;6.13;4.13;;;;;;;23.37;58.57;102405.81;5114177;28;20044;-70
2022/07/12 07:46:21;;;;;;;5.32;3.90;;;;;;;23.52;57.92;102403.13;5114305;28;20048;-70
2022/07/12 07:48:48;;;;;;;5.43;3.70;;;;;;;23.65;57.78;102405.97;5113254;28;22124;-69
2022/07/12 07:51:15;;;;;;;9.90;4.35;;;;;;;23.71;56.89;102398.34;5113217;28;20043;-69
2022/07/12 07:53:43;;;;;;;9.77;3.55;;;;;;;23.87;57.53;102395.59;5114214;28;20044;-71
2022/07/12 07:56:11;;;;;;;22.00;3.92;;;;;;;24.07;56.23;102409.66;5114077;28;20044;-71
2022/07/12 07:58:38;;;;;;;14.20;3.80;;;;;;;24.16;55.96;102408.22;5095130;28;20044;-70
2022/07/12 08:01:05;;;;;;;8.30;3.03;;;;;;;24.21;55.83;102407.91;5113149;28;20044;-70
2022/07/12 08:03:32;;;;;;;5.90;3.40;;;;;;;24.21;55.71;102403.41;5113236;28;20078;-69
2022/07/12 08:06:00;;;;;;;6.80;3.97;;;;;;;24.22;55.91;102398.88;5113803;28;20063;-70
2022/07/12 08:08:28;;;;;;;6.90;4.63;;;;;;;24.17;56.15;102401.88;5113879;27;20048;-71
2022/07/12 08:11:13;;;;;;;6.00;3.70;;;;;;;24.12;56.06;102395.88;5113614;28;20577;-71
2022/07/12 08:13:40;;;;;;;10.02;3.72;;;;;;;24.10;55.43;102406.78;5115948;27;20115;-71
2022/07/12 08:16:07;;;;;;;7.60;3.72;;;;;;;24.17;55.60;102396.47;5112756;27;20060;-71
2022/07/12 08:18:34;;;;;;;7.55;3.53;;;;;;;24.31;55.62;102392.91;5113980;28;20036;-70
2022/07/12 08:21:02;;;;;;;4.40;3.33;;;;;;;24.50;55.26;102385.34;5112724;28;20040;-70
2022/07/12 08:23:29;;;;;;;4.22;3.35;;;;;;;24.64;54.77;102389.81;5112716;28;20094;-71
2022/07/12 08:25:57;;;;;;;4.22;3.40;;;;;;;24.90;54.76;102389.09;5112489;28;20838;-70
2022/07/12 08:28:24;;;;;;;6.57;4.03;;;;;;;25.08;53.54;102385.13;5112295;28;20047;-71
2022/07/12 08:30:51;;;;;;;6.55;3.55;;;;;;;25.11;54.34;102390.31;5113377;28;20065;-71
2022/07/12 08:33:19;;;;;;;32.80;4.80;;;;;;;25.10;53.59;102385.06;5113177;28;20036;-71
2022/07/12 08:35:46;;;;;;;4.90;3.25;;;;;;;25.07;53.59;102379.84;5112905;28;20040;-71
2022/07/12 08:38:15;;;;;;;7.07;3.83;;;;;;;25.06;52.91;102383.50;5112736;28;20202;-70
2022/07/12 08:40:43;;;;;;;8.45;4.28;;;;;;;25.02;52.26;102390.09;5112215;28;20145;-71
2022/07/12 08:43:10;;;;;;;3.70;3.20;;;;;;;24.99;52.37;102388.47;5103747;28;20047;-71
2022/07/12 08:45:40;;;;;;;4.38;3.38;;;;;;;25.08;51.77;102390.53;5108542;28;20064;-70
2022/07/12 08:48:08;;;;;;;7.97;2.60;;;;;;;25.17;52.00;102396.28;5111859;28;20609;-71
2022/07/12 08:50:36;;;;;;;14.00;3.17;;;;;;;25.25;51.91;102391.22;5112896;28;20048;-70
2022/07/12 08:53:12;;;;;;;4.93;2.90;;;;;;;25.33;51.62;102386.16;5114290;27;20046;-71
2022/07/12 08:55:40;;;;;;;8.90;3.75;;;;;;;25.42;51.85;102390.94;5101045;28;20097;-70
2022/07/12 08:58:16;;;;;;;10.32;3.20;;;;;;;25.52;51.02;102393.91;5112268;28;20093;-71
2022/07/12 09:00:43;;;;;;;6.18;2.53;;;;;;;25.50;50.79;102397.66;5112777;28;20722;-71
2022/07/12 09:03:16;;;;;;;8.48;2.03;;;;;;;25.60;49.57;102396.03;5109815;27;20043;-70
2022/07/12 09:05:55;;;;;;;11.73;1.92;;;;;;;25.61;48.54;102396.91;5112958;28;20036;-70
2022/07/12 09:08:33;;;;;;;9.85;3.22;;;;;;;25.49;48.48;102396.78;5112654;27;20047;-71
2022/07/12 09:11:03;;;;;;;10.20;3.08;;;;;;;25.38;49.58;102402.91;5106036;27;20510;-70
2022/07/12 09:14:07;;;;;;;7.25;2.20;;;;;;;25.50;49.55;102403.03;5109384;28;20514;-71
2022/07/12 09:16:34;;;;;;;1.48;1.38;;;;;;;25.63;48.97;102413.88;5057634;28;20061;-70
2022/07/12 09:19:14;;;;;;;2.58;1.73;;;;;;;25.60;47.32;102400.59;5083951;28;20053;-71
2022/07/12 09:21:55;;;;;;;6.28;1.42;;;;;;;25.58;47.50;102406.09;5095169;28;20440;-70
2022/07/12 09:24:27;;;;;;;5.03;1.08;;;;;;;25.67;47.57;102404.56;5072375;28;20099;-70
2022/07/12 09:27:02;;;;;;;4.25;1.45;;;;;;;25.81;47.56;102404.47;5085324;28;20191;-70
2022/07/12 09:29:32;;;;;;;9.95;2.30;;;;;;;25.85;46.36;102407.81;5092199;28;20064;-69
2022/07/12 09:37:43;;;;;;;4.57;3.17;;;;;;;25.94;48.27;102399.06;5091861;28;20045;-70
2022/07/12 09:40:10;;;;;;;5.18;2.42;;;;;;;25.92;48.37;102398.28;5082012;28;20518;-70
2022/07/12 09:42:40;;;;;;;2.28;2.08;;;;;;;26.00;48.41;102392.34;5094828;28;20487;-70
2022/07/12 09:45:10;;;;;;;5.30;3.08;;;;;;;26.03;48.45;102387.56;5090927;28;20130;-70
2022/07/12 09:47:38;;;;;;;3.80;2.97;;;;;;;26.12;49.03;102383.41;5089617;28;20045;-69
2022/07/12 09:50:09;;;;;;;5.20;3.75;;;;;;;26.20;49.33;102382.81;5091971;28;20817;-69
2022/07/12 09:52:39;;;;;;;6.05;3.80;;;;;;;26.33;48.87;102378.25;5094221;28;20503;-69
2022/07/12 09:55:11;;;;;;;5.15;4.43;;;;;;;26.35;48.13;102380.84;5091238;28;20045;-70
2022/07/12 09:57:43;;;;;;;6.70;3.80;;;;;;;26.35;48.50;102383.56;5083142;28;20102;-70
2022/07/12 10:00:11;;;;;;;5.85;3.67;;;;;;;26.38;48.28;102380.59;5095007;28;20537;-70
2022/07/12 10:02:41;;;;;;;5.18;3.10;;;;;;;26.41;47.46;102382.22;5093231;28;20045;-70
2022/07/12 10:05:10;;;;;;;6.18;3.60;;;;;;;26.47;47.41;102382.63;5109769;28;20748;-70
2022/07/12 10:07:38;;;;;;;7.45;3.10;;;;;;;26.60;47.69;102384.41;5105133;28;20510;-70
2022/07/12 10:10:10;;;;;;;8.70;3.50;;;;;;;26.70;47.39;102385.47;5107260;28;20145;-70
2022/07/12 10:12:41;;;;;;;4.90;3.25;;;;;;;26.81;47.69;102384.66;5099580;28;20036;-70
2022/07/12 10:15:22;;;;;;;5.88;3.92;;;;;;;26.91;47.50;102384.84;5099703;28;20056;-70
2022/07/12 10:17:56;;;;;;;5.05;3.70;;;;;;;26.92;47.13;102384.72;5091157;28;20157;-70
2022/07/12 10:20:26;;;;;;;9.00;3.70;;;;;;;26.91;46.88;102374.88;5094987;28;20558;-70
2022/07/12 10:23:15;;;;;;;8.27;2.97;;;;;;;26.93;47.21;102375.63;5094667;28;20047;-70
2022/07/12 10:25:43;;;;;;;4.40;3.00;;;;;;;27.06;46.25;102366.56;5093482;28;20040;-69
2022/07/12 10:28:10;;;;;;;5.40;3.15;;;;;;;27.15;46.13;102368.56;5094312;28;20137;-71
2022/07/12 10:30:50;;;;;;;3.15;2.50;;;;;;;27.16;44.80;102364.88;5094928;28;20182;-71
2022/07/12 10:33:22;;;;;;;4.47;1.90;;;;;;;27.20;45.59;102362.78;5092659;28;20048;-71
2022/07/12 10:36:01;;;;;;;2.50;2.00;;;;;;;27.33;45.46;102365.41;5105020;28;20110;-71
2022/07/12 10:38:29;;;;;;;2.88;2.50;;;;;;;27.43;44.21;102359.19;5102701;28;20044;-70
2022/07/12 10:40:57;;;;;;;4.07;1.70;;;;;;;27.47;44.79;102362.50;5093378;28;20076;-70
2022/07/12 10:46:21;;;;;;;6.30;3.00;;;;;;;27.60;43.84;102356.97;5088876;28;20090;-70
2022/07/12 10:48:49;;;;;;;1.90;1.70;;;;;;;27.67;44.64;102363.66;5088602;28;20525;-69
2022/07/12 10:51:20;;;;;;;4.25;1.52;;;;;;;27.82;44.45;102353.44;5088774;28;20044;-69
2022/07/12 10:53:50;;;;;;;2.63;1.70;;;;;;;27.96;43.54;102355.03;5106815;28;20063;-68
2022/07/12 10:56:27;;;;;;;4.60;2.58;;;;;;;28.02;43.65;102356.38;5096788;28;20059;-68
2022/07/12 10:58:59;;;;;;;5.20;2.05;;;;;;;28.03;42.81;102360.81;5094376;28;20036;-68
2022/07/12 11:01:31;;;;;;;3.53;2.10;;;;;;;28.04;42.13;102359.78;5094019;28;20119;-68
2022/07/12 11:04:10;;;;;;;5.95;1.50;;;;;;;28.02;43.29;102350.97;5090502;28;20045;-68
2022/07/12 11:06:41;;;;;;;1.85;1.30;;;;;;;28.23;41.61;102352.94;5094526;28;20469;-68
2022/07/12 11:09:11;;;;;;;4.63;1.50;;;;;;;28.33;42.38;102352.03;5103822;28;20094;-68
2022/07/12 11:11:48;;;;;;;6.40;2.35;;;;;;;28.52;41.96;102339.63;5092646;28;20427;-68
2022/07/12 11:14:30;;;;;;;6.22;1.80;;;;;;;28.64;41.73;102352.19;5093748;28;20094;-68
2022/07/12 11:16:59;;;;;;;7.95;1.50;;;;;;;28.69;41.47;102340.94;5093704;28;20106;-67
2022/07/12 11:19:31;;;;;;;7.43;2.28;;;;;;;28.80;41.96;102343.63;5097720;28;20047;-68
2022/07/12 11:21:59;;;;;;;2.42;1.75;;;;;;;28.92;40.85;102340.88;5103949;28;20036;-68
2022/07/12 11:24:29;;;;;;;3.08;1.20;;;;;;;29.03;40.88;102329.06;5093961;28;20037;-68
2022/07/12 11:26:59;;;;;;;3.35;1.65;;;;;;;29.25;40.74;102330.81;5100823;28;20605;-68
2022/07/12 11:29:27;;;;;;;6.47;2.70;;;;;;;29.39;40.02;102333.19;5089307;28;20526;-67
2022/07/12 11:32:07;;;;;;;5.25;1.90;;;;;;;29.35;39.79;102331.75;5099442;28;20504;-68
2022/07/12 11:34:38;;;;;;;5.35;2.08;;;;;;;29.27;40.28;102345.06;5094043;28;20044;-68
2022/07/12 11:37:06;;;;;;;12.38;2.33;;;;;;;29.26;40.40;102344.22;5099387;28;20040;-68
2022/07/12 11:39:36;;;;;;;14.57;2.80;;;;;;;29.37;39.61;102351.47;5099764;28;20158;-68
2022/07/12 11:42:05;;;;;;;3.20;2.25;;;;;;;29.42;38.43;102340.19;5099544;28;20584;-68
2022/07/12 11:44:49;;;;;;;11.05;2.53;;;;;;;29.42;38.70;102343.78;5105971;28;20040;-67
2022/07/12 11:47:20;;;;;;;11.30;1.83;;;;;;;29.51;39.55;102343.97;5100669;28;20039;-68
2022/07/12 11:49:50;;;;;;;2.95;1.55;;;;;;;29.76;38.97;102334.50;5100726;28;20066;-67